createdAt,value
2023-03-06T00:00:55.193Z,1.61
2023-03-06T00:03:28.231Z,1.60
2023-03-06T00:06:00.228Z,1.58
2023-03-06T00:08:29.283Z,1.58
2023-03-06T00:10:57.812Z,1.58
2023-03-06T00:13:26.807Z,1.58
2023-03-06T00:15:57.895Z,1.57
2023-03-06T00:18:25.969Z,1.56
2023-03-06T00:20:54.096Z,1.55
2023-03-06T00:23:22.091Z,1.53
2023-03-06T00:25:50.038Z,1.50
2023-03-06T00:28:18.049Z,1.47
2023-03-06T00:30:47.520Z,1.46
2023-03-06T00:33:15.500Z,1.45
2023-03-06T00:35:43.690Z,1.44
2023-03-06T00:38:12.884Z,1.44
2023-03-06T00:40:40.995Z,1.43
2023-03-06T00:43:09.112Z,1.42
2023-03-06T00:45:37.438Z,1.41
2023-03-06T00:48:05.988Z,1.42
2023-03-06T00:50:35.510Z,1.42
2023-03-06T00:53:03.523Z,1.41
2023-03-06T00:55:33.476Z,1.40
2023-03-06T00:58:01.589Z,1.38
2023-03-06T01:00:29.599Z,1.36
2023-03-06T01:02:57.623Z,1.33
2023-03-06T01:05:25.648Z,1.29
2023-03-06T01:07:54.096Z,1.24
2023-03-06T01:10:22.151Z,1.21
2023-03-06T01:12:50.165Z,1.18
2023-03-06T01:15:20.371Z,1.14
2023-03-06T01:17:51.798Z,1.09
2023-03-06T01:20:20.460Z,1.04
2023-03-06T01:22:48.500Z,0.99
2023-03-06T01:25:16.483Z,0.95
2023-03-06T01:27:44.527Z,0.91
2023-03-06T01:30:13.050Z,0.86
2023-03-06T01:32:41.175Z,0.80
2023-03-06T01:35:09.966Z,0.75
2023-03-06T01:37:39.108Z,0.69
2023-03-06T01:40:10.357Z,0.65
2023-03-06T01:42:38.426Z,0.59
2023-03-06T01:45:06.924Z,0.56
2023-03-06T01:47:35.833Z,0.52
2023-03-06T01:50:05.622Z,0.49
2023-03-06T01:52:38.347Z,0.44
2023-03-06T01:55:11.117Z,0.40
2023-03-06T01:57:44.628Z,0.36
2023-03-06T02:00:17.102Z,0.32
2023-03-06T02:02:54.067Z,0.29
2023-03-06T02:05:23.143Z,0.25
2023-03-06T02:07:52.098Z,0.22
2023-03-06T02:10:21.161Z,0.19
2023-03-06T02:12:51.209Z,0.16
2023-03-06T02:15:23.832Z,0.14
2023-03-06T02:17:52.764Z,0.12
2023-03-06T02:20:31.837Z,0.12
2023-03-06T02:23:08.873Z,0.11
2023-03-06T02:25:41.656Z,0.10
2023-03-06T02:28:15.430Z,0.09
2023-03-06T02:30:44.699Z,0.09
2023-03-06T02:33:15.044Z,0.06
2023-03-06T02:35:59.393Z,0.01
2023-03-06T02:38:32.022Z,-0.03
2023-03-06T02:41:05.792Z,-0.08
2023-03-06T02:43:37.246Z,-0.12
2023-03-06T02:46:05.788Z,-0.15
2023-03-06T02:48:33.880Z,-0.19
2023-03-06T02:51:02.162Z,-0.23
2023-03-06T02:53:30.408Z,-0.28
2023-03-06T02:56:01.751Z,-0.34
2023-03-06T02:58:29.986Z,-0.39
2023-03-06T03:02:10.548Z,-0.45
2023-03-06T03:04:39.349Z,-0.52
2023-03-06T03:07:08.428Z,-0.58
2023-03-06T03:09:37.354Z,-0.63
2023-03-06T03:12:07.323Z,-0.68
2023-03-06T03:14:35.674Z,-0.73
2023-03-06T03:17:04.133Z,-0.78
2023-03-06T03:19:32.296Z,-0.84
2023-03-06T03:22:00.400Z,-0.90
2023-03-06T03:24:30.453Z,-0.96
2023-03-06T03:26:58.727Z,-1.04
2023-03-06T03:29:27.148Z,-1.10
2023-03-06T03:31:55.391Z,-1.16
2023-03-06T03:34:25.978Z,-1.22
2023-03-06T03:36:55.080Z,-1.29
2023-03-06T03:39:23.778Z,-1.35
2023-03-06T03:41:51.789Z,-1.40
2023-03-06T03:44:20.940Z,-1.45
2023-03-06T03:46:49.323Z,-1.50
2023-03-06T03:49:21.167Z,-1.55
2023-03-06T03:51:49.491Z,-1.60
2023-03-06T03:54:18.141Z,-1.64
2023-03-06T03:56:47.460Z,-1.66
2023-03-06T03:59:21.155Z,-1.67
2023-03-06T04:02:04.732Z,-1.68
2023-03-06T04:04:34.992Z,-1.70
2023-03-06T04:07:04.488Z,-1.69
2023-03-06T04:09:32.660Z,-1.65
2023-03-06T04:12:01.264Z,-1.63
2023-03-06T04:14:30.089Z,-1.59
2023-03-06T04:16:58.518Z,-1.53
2023-03-06T04:19:26.825Z,-1.49
2023-03-06T04:21:55.133Z,-1.44
2023-03-06T04:24:23.278Z,-1.40
2023-03-06T04:26:51.375Z,-1.34
2023-03-06T04:29:19.408Z,-1.29
2023-03-06T04:31:47.712Z,-1.23
2023-03-06T04:34:16.590Z,-1.17
2023-03-06T04:36:47.819Z,-1.14
2023-03-06T04:39:17.437Z,-1.12
2023-03-06T04:41:45.942Z,-1.09
2023-03-06T04:44:14.085Z,-1.03
2023-03-06T04:46:42.237Z,-0.96
2023-03-06T04:49:10.310Z,-0.92
2023-03-06T04:51:38.317Z,-0.92
2023-03-06T04:54:06.412Z,-0.93
2023-03-06T04:56:34.748Z,-0.92
2023-03-06T04:59:04.915Z,-0.91
2023-03-06T05:01:32.878Z,-0.92
2023-03-06T05:04:00.944Z,-0.92
2023-03-06T05:06:29.010Z,-0.93
2023-03-06T05:08:57.101Z,-0.93
2023-03-06T05:11:25.133Z,-0.89
2023-03-06T05:13:53.179Z,-0.86
2023-03-06T05:16:21.265Z,-0.82
2023-03-06T05:18:50.700Z,-0.81
2023-03-06T05:21:18.990Z,-0.80
2023-03-06T05:23:47.740Z,-0.81
2023-03-06T05:26:16.381Z,-0.83
2023-03-06T05:28:44.876Z,-0.85
2023-03-06T05:31:12.823Z,-0.89
2023-03-06T05:33:40.843Z,-0.92
2023-03-06T05:36:10.215Z,-0.93
2023-03-06T05:38:38.132Z,-0.98
2023-03-06T05:41:06.051Z,-1.00
2023-03-06T05:43:33.935Z,-1.01
2023-03-06T05:46:04.981Z,-1.03
2023-03-06T05:48:34.229Z,-1.06
2023-03-06T05:51:02.737Z,-1.08
2023-03-06T05:53:31.731Z,-1.11
2023-03-06T05:56:02.819Z,-1.12
2023-03-06T05:58:32.509Z,-1.13
2023-03-06T06:01:00.789Z,-1.13
2023-03-06T06:03:28.826Z,-1.13
2023-03-06T06:05:56.799Z,-1.12
2023-03-06T06:08:24.892Z,-1.12
2023-03-06T06:10:53.534Z,-1.11
2023-03-06T06:13:21.766Z,-1.10
2023-03-06T06:15:49.752Z,-1.08
2023-03-06T06:18:17.793Z,-1.07
2023-03-06T06:20:45.797Z,-1.05
2023-03-06T06:23:13.903Z,-1.00
2023-03-06T06:25:41.936Z,-0.91
2023-03-06T06:28:10.206Z,-0.81
2023-03-06T06:30:38.300Z,-0.71
2023-03-06T06:33:06.420Z,-0.59
2023-03-06T06:35:37.287Z,-0.47
2023-03-06T06:38:05.339Z,-0.34
2023-03-06T06:40:33.368Z,-0.21
2023-03-06T06:43:01.434Z,-0.10
2023-03-06T06:45:29.368Z,0.02
2023-03-06T06:47:57.364Z,0.14
2023-03-06T06:50:25.432Z,0.26
2023-03-06T06:52:53.433Z,0.38
2023-03-06T06:55:21.338Z,0.51
2023-03-06T06:57:49.247Z,0.65
2023-03-06T07:00:18.294Z,0.78
2023-03-06T07:02:49.260Z,0.89
2023-03-06T07:05:17.664Z,0.99
2023-03-06T07:07:45.674Z,1.09
2023-03-06T07:10:15.911Z,1.21
2023-03-06T07:12:43.943Z,1.34
2023-03-06T07:15:14.895Z,1.45
2023-03-06T07:17:43.090Z,1.58
2023-03-06T07:20:12.769Z,1.69
2023-03-06T07:22:50.501Z,1.80
2023-03-06T07:25:20.731Z,1.91
2023-03-06T07:27:54.019Z,2.02
2023-03-06T07:30:23.786Z,2.11
2023-03-06T07:32:54.107Z,2.21
2023-03-06T07:35:22.603Z,2.29
2023-03-06T07:37:51.578Z,2.38
2023-03-06T07:40:20.863Z,2.48
2023-03-06T07:42:48.937Z,2.53
2023-03-06T07:45:19.672Z,2.55
2023-03-06T07:47:50.656Z,2.60
2023-03-06T07:50:20.029Z,2.66
2023-03-06T07:52:50.040Z,2.70
2023-03-06T07:55:18.483Z,2.80
2023-03-06T07:57:46.570Z,2.93
2023-03-06T08:00:16.124Z,3.08
2023-03-06T08:02:44.167Z,3.23
2023-03-06T08:05:15.289Z,3.34
2023-03-06T08:07:45.156Z,3.41
2023-03-06T08:10:15.510Z,3.51
2023-03-06T08:12:43.958Z,3.65
2023-03-06T08:15:12.910Z,3.75
2023-03-06T08:17:41.501Z,3.81
2023-03-06T08:20:10.581Z,3.81
2023-03-06T08:22:39.236Z,3.84
2023-03-06T08:25:08.732Z,3.88
2023-03-06T08:27:36.616Z,3.98
2023-03-06T08:30:05.469Z,4.10
2023-03-06T08:32:36.807Z,4.23
2023-03-06T08:35:05.625Z,4.35
2023-03-06T08:37:33.785Z,4.42
2023-03-06T08:40:04.670Z,4.34
2023-03-06T08:42:33.115Z,4.31
2023-03-06T08:45:01.135Z,4.44
2023-03-06T08:47:29.149Z,4.52
2023-03-06T08:50:00.193Z,4.46
2023-03-06T08:52:28.604Z,4.49
2023-03-06T08:54:58.133Z,4.59
2023-03-06T08:57:26.228Z,4.60
2023-03-06T08:59:54.325Z,4.53
2023-03-06T09:02:22.442Z,4.56
2023-03-06T09:04:50.731Z,4.71
2023-03-06T09:07:18.693Z,4.85
2023-03-06T09:09:46.767Z,4.93
2023-03-06T09:12:14.811Z,4.99
2023-03-06T09:14:42.747Z,5.09
2023-03-06T09:17:10.647Z,5.14
2023-03-06T09:19:38.649Z,5.21
2023-03-06T09:22:06.851Z,5.15
2023-03-06T09:24:35.558Z,5.08
2023-03-06T09:27:03.742Z,5.15
2023-03-06T09:29:31.839Z,5.22
2023-03-06T09:32:00.155Z,5.17
2023-03-06T09:34:28.268Z,5.16
2023-03-06T09:36:57.703Z,5.09
2023-03-06T09:39:26.449Z,5.01
2023-03-06T09:41:57.475Z,5.00
2023-03-06T09:44:29.184Z,5.03
2023-03-06T09:47:13.526Z,5.08
2023-03-06T09:50:18.894Z,5.21
2023-03-06T09:53:23.963Z,5.37
2023-03-06T09:56:05.894Z,5.49
2023-03-06T09:58:40.957Z,5.56
2023-03-06T10:01:33.139Z,5.65
2023-03-06T10:04:06.944Z,5.70
2023-03-06T10:06:40.396Z,5.64
2023-03-06T10:09:17.836Z,5.54
2023-03-06T10:11:57.044Z,5.42
2023-03-06T10:14:39.832Z,5.42
2023-03-06T10:17:16.770Z,5.54
2023-03-06T10:19:47.679Z,5.69
2023-03-06T10:22:24.646Z,5.73
2023-03-06T10:25:01.165Z,5.72
2023-03-06T10:27:48.308Z,5.76
2023-03-06T10:30:24.064Z,5.70
2023-03-06T10:33:22.630Z,5.65
2023-03-06T10:35:53.408Z,5.69
2023-03-06T10:38:21.604Z,5.81
2023-03-06T10:40:55.439Z,5.89
2023-03-06T10:43:23.845Z,5.98
2023-03-06T10:45:53.697Z,6.06
2023-03-06T10:48:25.604Z,6.11
2023-03-06T10:51:17.757Z,6.25
2023-03-06T10:53:57.304Z,6.41
2023-03-06T10:56:30.419Z,6.47
2023-03-06T10:59:19.419Z,6.49
2023-03-06T11:01:58.710Z,6.47
2023-03-06T11:04:32.542Z,6.55
2023-03-06T11:07:28.399Z,6.60
2023-03-06T11:09:56.930Z,6.56
2023-03-06T11:12:39.390Z,6.51
2023-03-06T11:15:09.953Z,6.57
2023-03-06T11:17:50.468Z,6.78
2023-03-06T11:20:27.737Z,6.90
2023-03-06T11:23:19.577Z,6.91
2023-03-06T11:26:08.338Z,6.82
2023-03-06T11:28:51.842Z,6.80
2023-03-06T11:31:27.517Z,6.89
2023-03-06T11:34:07.776Z,6.98
2023-03-06T11:36:45.710Z,7.20
2023-03-06T11:39:50.393Z,7.38
2023-03-06T11:42:32.593Z,7.55
2023-03-06T11:45:03.387Z,7.60
2023-03-06T11:48:17.584Z,7.73
2023-03-06T11:50:53.700Z,7.92
2023-03-06T11:53:28.354Z,8.10
2023-03-06T11:56:01.414Z,8.36
2023-03-06T11:58:51.149Z,8.57
2023-03-06T12:01:42.102Z,8.74
2023-03-06T12:04:34.372Z,8.85
2023-03-06T12:07:31.303Z,8.96
2023-03-06T12:10:06.446Z,9.17
2023-03-06T12:12:59.208Z,9.36
2023-03-06T12:15:58.298Z,9.31
2023-03-06T12:18:51.288Z,9.03
2023-03-06T12:21:38.443Z,8.79
2023-03-06T12:24:28.930Z,8.57
2023-03-06T12:26:59.519Z,8.32
2023-03-06T12:29:46.187Z,8.12
2023-03-06T12:32:26.391Z,7.84
2023-03-06T12:35:05.894Z,7.64
2023-03-06T12:38:00.802Z,7.60
2023-03-06T12:40:34.970Z,7.69
2023-03-06T12:43:35.026Z,7.94
2023-03-06T12:46:24.313Z,7.96
2023-03-06T12:49:31.146Z,7.90
2023-03-06T12:52:02.497Z,7.86
2023-03-06T12:54:33.614Z,7.93
2023-03-06T12:57:01.703Z,7.99
2023-03-06T12:59:47.976Z,7.92
2023-03-06T13:02:50.553Z,7.99
2023-03-06T13:05:33.941Z,8.24
2023-03-06T13:08:22.764Z,8.44
2023-03-06T13:11:35.632Z,8.57
2023-03-06T13:14:25.683Z,8.69
2023-03-06T13:16:54.680Z,8.77
2023-03-06T13:19:25.832Z,8.93
2023-03-06T13:21:56.613Z,9.00
2023-03-06T13:24:27.835Z,9.04
2023-03-06T13:27:04.837Z,9.05
2023-03-06T13:29:38.730Z,9.15
2023-03-06T13:32:18.778Z,9.22
2023-03-06T13:34:49.169Z,9.24
2023-03-06T13:37:17.166Z,9.27
2023-03-06T13:40:00.506Z,9.40
2023-03-06T13:42:31.195Z,9.56
2023-03-06T13:45:23.802Z,9.64
2023-03-06T13:50:49.880Z,9.68
2023-03-06T13:53:55.689Z,9.59
2023-03-06T13:56:23.581Z,9.43
2023-03-06T13:58:57.331Z,9.38
2023-03-06T14:01:32.836Z,9.30
2023-03-06T14:04:13.704Z,9.10
2023-03-06T14:07:01.416Z,8.92
2023-03-06T14:09:35.699Z,8.77
2023-03-06T14:12:38.060Z,8.61
2023-03-06T14:15:17.757Z,8.46
2023-03-06T14:18:04.823Z,8.33
2023-03-06T14:20:43.438Z,8.26
2023-03-06T14:23:16.601Z,8.17
2023-03-06T14:25:47.539Z,8.08
2023-03-06T14:28:27.223Z,8.04
2023-03-06T14:30:57.289Z,8.03
2023-03-06T14:33:51.146Z,7.99
2023-03-06T14:36:22.612Z,7.95
2023-03-06T14:39:08.919Z,7.92
2023-03-06T14:41:37.122Z,7.89
2023-03-06T14:44:16.694Z,7.83
2023-03-06T14:46:47.303Z,7.76
2023-03-06T14:49:17.806Z,7.69
2023-03-06T14:51:55.962Z,7.70
2023-03-06T14:54:32.433Z,7.71
2023-03-06T14:57:06.044Z,7.73
2023-03-06T14:59:56.352Z,7.75
2023-03-06T15:02:28.419Z,7.73
2023-03-06T15:05:02.984Z,7.70
2023-03-06T15:07:33.255Z,7.68
2023-03-06T15:10:01.384Z,7.65
2023-03-06T15:12:34.101Z,7.64
2023-03-06T15:15:05.247Z,7.60
2023-03-06T15:17:39.277Z,7.52
2023-03-06T15:20:36.149Z,7.38
2023-03-06T15:23:16.420Z,7.26
2023-03-06T15:25:59.031Z,7.15
2023-03-06T15:28:39.594Z,7.09
2023-03-06T15:31:10.661Z,7.00
2023-03-06T15:33:38.660Z,6.90
2023-03-06T15:36:19.618Z,6.83
2023-03-06T15:38:48.700Z,6.78
2023-03-06T15:41:26.882Z,6.73
2023-03-06T15:43:54.858Z,6.67
2023-03-06T15:46:22.722Z,6.59
2023-03-06T15:49:03.120Z,6.52
2023-03-06T15:51:32.832Z,6.45
2023-03-06T15:54:11.838Z,6.39
2023-03-06T15:56:43.938Z,6.31
2023-03-06T15:59:24.759Z,6.25
2023-03-06T16:01:54.051Z,6.24
2023-03-06T16:04:22.140Z,6.21
2023-03-06T16:06:50.042Z,6.17
2023-03-06T16:09:17.989Z,6.13
2023-03-06T16:11:47.176Z,6.05
2023-03-06T16:14:24.151Z,5.96
2023-03-06T16:16:54.352Z,5.85
2023-03-06T16:19:26.737Z,5.76
2023-03-06T16:21:56.684Z,5.69
2023-03-06T16:24:26.371Z,5.62
2023-03-06T16:26:55.287Z,5.57
2023-03-06T16:29:27.279Z,5.50
2023-03-06T16:31:57.098Z,5.43
2023-03-06T16:34:25.585Z,5.38
2023-03-06T16:36:53.609Z,5.33
2023-03-06T16:39:23.594Z,5.27
2023-03-06T16:41:52.632Z,5.22
2023-03-06T16:44:21.160Z,5.18
2023-03-06T16:46:50.491Z,5.14
2023-03-06T16:49:24.520Z,5.10
2023-03-06T16:51:53.770Z,5.05
2023-03-06T16:54:24.290Z,5.02
2023-03-06T16:56:52.340Z,5.00
2023-03-06T16:59:20.403Z,4.97
2023-03-06T17:01:48.900Z,4.93
2023-03-06T17:04:16.883Z,4.89
2023-03-06T17:06:45.048Z,4.85
2023-03-06T17:09:14.412Z,4.81
2023-03-06T17:11:46.685Z,4.79
2023-03-06T17:14:14.811Z,4.76
2023-03-06T17:16:42.730Z,4.73
2023-03-06T17:19:15.229Z,4.69
2023-03-06T17:21:43.830Z,4.64
2023-03-06T17:24:11.756Z,4.60
2023-03-06T17:26:40.368Z,4.61
2023-03-06T17:29:09.635Z,4.58
2023-03-06T17:31:38.089Z,4.54
2023-03-06T17:34:06.248Z,4.51
2023-03-06T17:36:34.178Z,4.50
2023-03-06T17:39:03.344Z,4.47
2023-03-06T17:41:33.044Z,4.44
2023-03-06T17:44:02.050Z,4.40
2023-03-06T17:46:32.204Z,4.36
2023-03-06T17:49:01.305Z,4.31
2023-03-06T17:51:29.427Z,4.29
2023-03-06T17:53:57.598Z,4.25
2023-03-06T17:56:27.019Z,4.23
2023-03-06T17:58:55.458Z,4.22
2023-03-06T18:01:27.696Z,4.21
2023-03-06T18:03:56.462Z,4.21
2023-03-06T18:06:27.560Z,4.22
2023-03-06T18:08:56.356Z,4.23
2023-03-06T18:11:24.719Z,4.22
2023-03-06T18:13:53.019Z,4.21
2023-03-06T18:16:23.412Z,4.20
2023-03-06T18:18:56.009Z,4.20
2023-03-06T18:21:25.070Z,4.19
2023-03-06T18:23:53.625Z,4.17
2023-03-06T18:26:27.772Z,4.16
2023-03-06T18:28:58.241Z,4.15
2023-03-06T18:31:29.076Z,4.15
2023-03-06T18:34:00.967Z,4.15
2023-03-06T18:36:32.417Z,4.14
2023-03-06T18:39:03.758Z,4.14
2023-03-06T18:41:32.335Z,4.13
2023-03-06T18:44:01.878Z,4.14
2023-03-06T18:46:32.014Z,4.15
2023-03-06T18:49:00.781Z,4.18
2023-03-06T18:51:28.914Z,4.21
2023-03-06T18:53:58.845Z,4.27
2023-03-06T18:56:27.415Z,4.33
2023-03-06T18:58:55.463Z,4.39
2023-03-06T19:01:24.573Z,4.45
2023-03-06T19:03:52.541Z,4.49
2023-03-06T19:06:20.471Z,4.54
2023-03-06T19:08:48.332Z,4.59
2023-03-06T19:11:18.024Z,4.62
2023-03-06T19:13:45.921Z,4.65
2023-03-06T19:16:24.399Z,4.67
2023-03-06T19:18:55.209Z,4.69
2023-03-06T19:21:26.090Z,4.73
2023-03-06T19:23:56.017Z,4.77
2023-03-06T19:26:24.610Z,4.82
2023-03-06T19:28:52.623Z,4.86
2023-03-06T19:31:26.663Z,4.90
2023-03-06T19:33:56.980Z,4.94
2023-03-06T19:36:28.865Z,4.95
2023-03-06T19:38:59.264Z,4.98
2023-03-06T19:41:28.371Z,4.99
2023-03-06T19:44:02.520Z,4.99
2023-03-06T19:46:31.929Z,4.98
2023-03-06T19:49:02.794Z,4.98
2023-03-06T19:51:30.702Z,4.96
2023-03-06T19:53:58.650Z,4.94
2023-03-06T19:56:29.332Z,4.90
2023-03-06T19:58:57.614Z,4.88
2023-03-06T20:01:27.764Z,4.85
2023-03-06T20:04:00.412Z,4.81
2023-03-06T20:06:33.803Z,4.78
2023-03-06T20:09:05.417Z,4.76
2023-03-06T20:11:33.446Z,4.73
2023-03-06T20:14:04.011Z,4.70
2023-03-06T20:16:33.869Z,4.67
2023-03-06T20:19:02.674Z,4.64
2023-03-06T20:21:35.358Z,4.60
2023-03-06T20:24:07.629Z,4.55
2023-03-06T20:26:38.057Z,4.51
2023-03-06T20:29:06.468Z,4.46
2023-03-06T20:31:34.650Z,4.43
2023-03-06T20:34:03.897Z,4.38
2023-03-06T20:36:36.022Z,4.34
2023-03-06T20:39:10.150Z,4.31
2023-03-06T20:41:38.512Z,4.29
2023-03-06T20:44:13.416Z,4.28
2023-03-06T20:46:42.719Z,4.27
2023-03-06T20:49:12.746Z,4.27
2023-03-06T20:51:41.599Z,4.28
2023-03-06T20:54:13.230Z,4.28
2023-03-06T20:56:42.986Z,4.30
2023-03-06T20:59:12.200Z,4.32
2023-03-06T21:01:42.812Z,4.34
2023-03-06T21:04:16.088Z,4.36
2023-03-06T21:06:47.113Z,4.38
2023-03-06T21:09:17.274Z,4.41
2023-03-06T21:11:46.223Z,4.44
2023-03-06T21:14:15.532Z,4.46
2023-03-06T21:16:44.585Z,4.48
2023-03-06T21:19:12.705Z,4.50
2023-03-06T21:21:40.722Z,4.51
2023-03-06T21:24:08.625Z,4.52
2023-03-06T21:26:36.604Z,4.51
2023-03-06T21:29:05.384Z,4.53
2023-03-06T21:31:34.284Z,4.54
2023-03-06T21:34:04.889Z,4.56
2023-03-06T21:36:34.146Z,4.54
2023-03-06T21:39:06.353Z,4.52
2023-03-06T21:41:34.554Z,4.50
2023-03-06T21:44:05.229Z,4.46
2023-03-06T21:46:34.269Z,4.44
2023-03-06T21:49:04.321Z,4.43
2023-03-06T21:51:32.608Z,4.39
2023-03-06T21:54:02.366Z,4.37
2023-03-06T21:56:30.411Z,4.38
2023-03-06T21:58:59.104Z,4.42
2023-03-06T22:01:29.174Z,4.46
2023-03-06T22:03:58.655Z,4.49
2023-03-06T22:06:28.331Z,4.52
2023-03-06T22:08:57.477Z,4.54
2023-03-06T22:11:28.374Z,4.56
2023-03-06T22:13:56.433Z,4.57
2023-03-06T22:16:24.371Z,4.57
2023-03-06T22:18:52.593Z,4.56
2023-03-06T22:21:22.750Z,4.54
2023-03-06T22:23:58.475Z,4.53
2023-03-06T22:26:28.546Z,4.50
2023-03-06T22:28:56.892Z,4.49
2023-03-06T22:31:28.486Z,4.46
2023-03-06T22:33:59.224Z,4.45
2023-03-06T22:36:30.546Z,4.44
2023-03-06T22:39:04.522Z,4.44
2023-03-06T22:41:32.651Z,4.43
2023-03-06T22:44:02.255Z,4.42
2023-03-06T22:46:31.260Z,4.40
2023-03-06T22:49:00.979Z,4.37
2023-03-06T22:51:29.849Z,4.31
2023-03-06T22:53:58.335Z,4.25
2023-03-06T22:56:27.756Z,4.21
2023-03-06T22:58:57.647Z,4.18
2023-03-06T23:01:29.000Z,4.17
2023-03-06T23:03:59.858Z,4.15
2023-03-06T23:06:33.789Z,4.14
2023-03-06T23:09:12.806Z,4.14
2023-03-06T23:12:00.194Z,4.11
2023-03-06T23:14:49.817Z,4.11
2023-03-06T23:17:36.742Z,4.10
2023-03-06T23:20:23.539Z,4.08
2023-03-06T23:23:10.845Z,4.07
2023-03-06T23:25:44.712Z,4.06
2023-03-06T23:28:12.868Z,4.05
2023-03-06T23:30:41.670Z,4.02
2023-03-06T23:33:10.760Z,3.99
2023-03-06T23:35:39.256Z,3.97
2023-03-06T23:38:07.748Z,3.94
2023-03-06T23:40:38.193Z,3.89
2023-03-06T23:43:06.509Z,3.83
2023-03-06T23:45:34.505Z,3.77
2023-03-06T23:48:02.618Z,3.70
2023-03-06T23:50:31.842Z,3.67
2023-03-06T23:53:00.024Z,3.64
2023-03-06T23:55:28.073Z,3.62
2023-03-06T23:57:56.089Z,3.59
